Ilulissat

KL  EN  DA
ASIAQ
Weather Now GREENLAND SURVEY
Updated [WGT/WGST] Temperature [°C] Wind [m/s] Air pressure [hPa] Relative humidity [%] Precipitation [mm]
Present Wind chill Speed Max
24.09 02:00n/an/a3,0 ⇙4,61014n/an/a
24.09 01:00-5,3-10,53,6 ⇐8,71015530,0
24.09 00:00-4,9-10,44,2 ⇙7,81016510,0
23.09 23:00-4,8-9,02,7 ⇙7,21017530,0
23.09 22:00-3,9-9,44,5 ⇐6,41017500,0
23.09 21:00-4,10,01,2 ⇐2,91018510,0
23.09 20:00-4,20,01,2 ⇙2,01018600,0
23.09 19:00-2,6-6,12,5 ⇙3,41018550,0
23.09 18:00-1,60,00,7 ⇗1,31018640,0
23.09 17:00-1,5-3,81,7 ⇒2,41019600,0
23.09 16:00-1,2-3,21,6 ⇒2,21019590,0
23.09 15:00-0,90,01,1 ⇘2,51019600,0
23.09 14:00-1,3-3,41,6 ⇒2,61019630,0
23.09 13:00-1,00,01,3 ⇒1,91019600,0
23.09 12:00-2,0-4,21,6 ⇘2,11019660,0
23.09 11:00-1,8-4,92,3 ⇐3,51019500,0
23.09 10:00-2,2-7,24,2 ⇐5,61018530,0
23.09 09:00-2,6-8,04,8 ⇐6,81018520,0
23.09 08:00-2,5-8,35,5 ⇐7,01017490,0
23.09 07:00-3,90,00,4 ⇒1,11017770,0
23.09 06:00-4,70,01,2 ⇑1,71017790,0
23.09 05:00-5,40,01,3 ⇖1,71016800,0
23.09 04:00-5,7-9,42,2 ⇖2,71016800,0
23.09 03:00-6,70,00,0 ⇓0,01015860,0
23.09 02:00-3,60,00,0 ⇓0,01015770,0
Position: (69.2402777777,-51.06611111)

[Back]